Time;durP1;ratioP1;P1;durP2;ratioP2;P2;SDS_P1;SDS_P2;PMS_P1;PMS_P2;Temp;Humidity;BMP_temperature;BMP_pressure;BME280_temperature;BME280_humidity;BME280_pressure;Samples;Min_cycle;Max_cycle;Signal;HPM_P1;HPM_P2
2023/11/07 00:01:28;;;;;;;0.63;0.28;;;;;;;;;;5055722;28;20108;-60
2023/11/07 00:03:53;;;;;;;0.97;0.30;;;;;;;;;;5050879;28;20124;-57
2023/11/07 00:06:19;;;;;;;1.23;0.47;;;;;;;;;;5051412;28;20474;-58
2023/11/07 00:08:44;;;;;;;1.20;0.30;;;;;;;;;;5067786;28;20086;-58
2023/11/07 00:11:09;;;;;;;1.90;0.40;;;;;;;;;;5058912;28;20404;-58
2023/11/07 00:13:35;;;;;;;1.40;0.60;;;;;;;;;;5068297;28;20028;-59
2023/11/07 00:16:00;;;;;;;1.97;0.30;;;;;;;;;;5060443;28;20120;-58
2023/11/07 00:18:25;;;;;;;0.90;0.20;;;;;;;;;;5056008;28;20048;-59
2023/11/07 00:20:50;;;;;;;3.08;0.50;;;;;;;;;;5062840;28;20035;-59
2023/11/07 00:23:15;;;;;;;0.83;0.30;;;;;;;;;;5062241;28;20048;-59
2023/11/07 00:25:41;;;;;;;3.17;1.70;;;;;;;;;;5080640;28;20105;-57
2023/11/07 00:28:06;;;;;;;1.30;0.40;;;;;;;;;;5072483;28;20526;-60
2023/11/07 00:30:32;;;;;;;2.33;0.70;;;;;;;;;;5071245;28;20032;-58
2023/11/07 00:32:57;;;;;;;1.70;0.28;;;;;;;;;;5065217;28;20021;-59
2023/11/07 00:35:22;;;;;;;1.80;0.45;;;;;;;;;;5057637;28;20021;-58
2023/11/07 00:37:49;;;;;;;1.83;0.43;;;;;;;;;;5054585;28;20025;-57
2023/11/07 00:40:14;;;;;;;2.50;0.50;;;;;;;;;;5054142;28;20035;-58
2023/11/07 00:42:39;;;;;;;1.33;0.40;;;;;;;;;;5061532;28;20021;-58
2023/11/07 00:45:05;;;;;;;0.90;0.30;;;;;;;;;;5052838;28;20520;-58
2023/11/07 00:47:30;;;;;;;2.73;0.43;;;;;;;;;;5053601;28;20481;-60
2023/11/07 00:49:55;;;;;;;1.63;0.50;;;;;;;;;;5057049;28;20507;-58
2023/11/07 00:52:21;;;;;;;1.58;0.40;;;;;;;;;;5052305;28;20388;-59
2023/11/07 00:54:46;;;;;;;4.60;4.22;;;;;;;;;;5056129;28;20107;-58
2023/11/07 00:57:12;;;;;;;2.20;0.47;;;;;;;;;;5056923;28;20048;-57
2023/11/07 00:59:37;;;;;;;1.47;0.40;;;;;;;;;;5057857;28;20033;-58
2023/11/07 01:02:03;;;;;;;1.17;0.30;;;;;;;;;;5067229;28;20017;-59
2023/11/07 01:04:28;;;;;;;0.95;0.40;;;;;;;;;;5061002;28;20040;-58
2023/11/07 01:06:53;;;;;;;0.93;0.30;;;;;;;;;;5072458;28;20108;-57
2023/11/07 01:09:19;;;;;;;1.40;0.40;;;;;;;;;;5058719;28;20048;-58
2023/11/07 01:11:44;;;;;;;2.03;0.65;;;;;;;;;;5060247;28;20029;-59
2023/11/07 01:14:09;;;;;;;2.13;0.37;;;;;;;;;;5061469;28;20017;-58
2023/11/07 01:16:34;;;;;;;1.48;0.40;;;;;;;;;;5064530;28;20463;-57
2023/11/07 01:19:00;;;;;;;1.70;0.33;;;;;;;;;;5053893;28;20021;-57
2023/11/07 01:21:25;;;;;;;1.38;0.38;;;;;;;;;;5068013;28;20035;-58
2023/11/07 01:23:50;;;;;;;2.43;1.17;;;;;;;;;;5057232;28;20032;-60
2023/11/07 01:26:15;;;;;;;3.47;0.53;;;;;;;;;;5055115;28;20112;-58
2023/11/07 01:28:40;;;;;;;2.27;0.40;;;;;;;;;;5063289;28;20021;-59
2023/11/07 01:31:07;;;;;;;3.07;2.67;;;;;;;;;;5059930;28;20017;-58
2023/11/07 01:33:32;;;;;;;5.15;0.90;;;;;;;;;;5068929;28;20480;-59
2023/11/07 01:35:57;;;;;;;1.93;0.40;;;;;;;;;;5078050;28;20043;-59
2023/11/07 01:38:23;;;;;;;2.53;0.40;;;;;;;;;;5057938;28;20036;-56
2023/11/07 01:40:48;;;;;;;1.27;0.30;;;;;;;;;;5055979;28;20017;-58
2023/11/07 01:43:14;;;;;;;1.58;0.40;;;;;;;;;;5049999;28;20526;-59
2023/11/07 01:45:40;;;;;;;1.17;0.20;;;;;;;;;;5052224;28;20013;-57
2023/11/07 01:48:10;;;;;;;2.10;0.50;;;;;;;;;;5062558;28;20048;-58
2023/11/07 01:50:36;;;;;;;1.42;0.40;;;;;;;;;;5059936;28;20039;-58
2023/11/07 01:53:02;;;;;;;1.42;0.43;;;;;;;;;;5057053;28;20028;-59
2023/11/07 01:55:27;;;;;;;2.00;0.55;;;;;;;;;;5074135;28;20020;-57
2023/11/07 01:57:52;;;;;;;2.10;0.30;;;;;;;;;;5070581;28;20473;-58
2023/11/07 02:00:18;;;;;;;1.42;0.40;;;;;;;;;;5052215;28;20047;-58
2023/11/07 02:02:43;;;;;;;4.03;0.40;;;;;;;;;;5061924;28;20021;-57
2023/11/07 02:05:11;;;;;;;1.10;0.30;;;;;;;;;;5055904;28;20025;-59
2023/11/07 02:07:37;;;;;;;1.35;0.35;;;;;;;;;;5061470;28;20024;-59
2023/11/07 02:10:06;;;;;;;0.82;0.30;;;;;;;;;;5057286;28;20039;-58
2023/11/07 02:12:31;;;;;;;1.55;0.32;;;;;;;;;;5053545;28;20385;-57
2023/11/07 02:14:57;;;;;;;1.10;0.30;;;;;;;;;;5066787;28;20028;-59
2023/11/07 02:17:22;;;;;;;2.10;0.40;;;;;;;;;;5051935;28;20192;-59
2023/11/07 02:19:47;;;;;;;21.47;20.13;;;;;;;;;;5059460;28;20074;-58
2023/11/07 02:22:14;;;;;;;0.93;0.40;;;;;;;;;;5064753;28;20025;-58
2023/11/07 02:24:39;;;;;;;;;;;;;;;;;;5065789;28;20029;-57
2023/11/07 02:27:06;;;;;;;2.45;0.50;;;;;;;;;;5058185;28;19966;-58
2023/11/07 02:29:32;;;;;;;1.67;0.30;;;;;;;;;;5059457;28;20017;-58
2023/11/07 02:31:57;;;;;;;2.17;0.50;;;;;;;;;;5056656;28;20031;-58
2023/11/07 02:34:22;;;;;;;1.15;0.30;;;;;;;;;;5062116;28;20017;-59
2023/11/07 02:36:47;;;;;;;1.07;0.20;;;;;;;;;;5053665;28;20059;-59
2023/11/07 02:39:13;;;;;;;1.40;0.40;;;;;;;;;;5052364;28;20036;-57
2023/11/07 02:41:38;;;;;;;1.70;0.40;;;;;;;;;;5052339;28;20409;-59
2023/11/07 02:44:05;;;;;;;1.00;0.30;;;;;;;;;;5052027;28;20422;-58
2023/11/07 02:46:31;;;;;;;3.13;0.70;;;;;;;;;;5055688;28;20031;-58
2023/11/07 02:48:56;;;;;;;3.20;0.50;;;;;;;;;;5066861;28;20021;-57
2023/11/07 02:51:23;;;;;;;1.67;0.40;;;;;;;;;;5053127;28;20442;-58
2023/11/07 02:53:50;;;;;;;2.25;1.50;;;;;;;;;;5051434;28;20519;-59
2023/11/07 02:56:15;;;;;;;3.90;0.65;;;;;;;;;;5051796;28;20104;-59
2023/11/07 02:58:42;;;;;;;2.20;1.17;;;;;;;;;;5043606;28;20116;-57
2023/11/07 03:01:07;;;;;;;2.13;0.52;;;;;;;;;;5068492;28;20111;-58
2023/11/07 03:03:32;;;;;;;1.60;0.37;;;;;;;;;;5071243;28;20056;-59
2023/11/07 03:05:58;;;;;;;1.50;0.50;;;;;;;;;;5066283;28;20025;-58
2023/11/07 03:08:23;;;;;;;2.73;0.30;;;;;;;;;;5048739;28;20515;-58
2023/11/07 03:10:48;;;;;;;2.63;2.03;;;;;;;;;;5050860;28;20075;-58
2023/11/07 03:13:13;;;;;;;1.10;0.30;;;;;;;;;;5050106;28;20025;-57
2023/11/07 03:15:38;;;;;;;2.30;0.40;;;;;;;;;;5052281;28;20092;-59
2023/11/07 03:18:04;;;;;;;2.53;0.40;;;;;;;;;;5058556;28;20023;-57
2023/11/07 03:20:29;;;;;;;4.43;3.88;;;;;;;;;;5065318;28;20032;-58
2023/11/07 03:22:54;;;;;;;2.58;1.98;;;;;;;;;;5053539;28;20013;-58
2023/11/07 03:25:19;;;;;;;1.77;0.40;;;;;;;;;;5049919;28;20393;-58
2023/11/07 03:27:45;;;;;;;2.20;0.50;;;;;;;;;;5050519;28;20013;-59
2023/11/07 03:30:10;;;;;;;2.30;0.50;;;;;;;;;;5050643;28;20456;-58
2023/11/07 03:32:35;;;;;;;1.05;0.28;;;;;;;;;;5069785;28;20024;-58
2023/11/07 03:35:01;;;;;;;1.13;0.40;;;;;;;;;;5069241;28;20158;-58
2023/11/07 03:37:26;;;;;;;2.00;1.20;;;;;;;;;;5069857;28;20025;-59
2023/11/07 03:39:52;;;;;;;3.43;0.60;;;;;;;;;;5058645;28;20082;-59
2023/11/07 03:42:18;;;;;;;2.92;0.70;;;;;;;;;;5054349;28;20054;-59
2023/11/07 03:44:43;;;;;;;3.33;0.63;;;;;;;;;;5057946;28;20088;-58
2023/11/07 03:47:09;;;;;;;4.63;1.97;;;;;;;;;;5075055;28;20115;-59
2023/11/07 03:49:34;;;;;;;3.22;1.15;;;;;;;;;;5056398;28;20036;-58
2023/11/07 03:52:00;;;;;;;4.73;0.60;;;;;;;;;;5066384;28;20031;-61
2023/11/07 03:54:25;;;;;;;20.10;18.83;;;;;;;;;;5059437;28;20498;-57
2023/11/07 03:56:50;;;;;;;4.07;3.43;;;;;;;;;;5053717;28;20021;-59
2023/11/07 03:59:15;;;;;;;7.57;7.00;;;;;;;;;;5056240;28;20477;-59
2023/11/07 04:01:41;;;;;;;2.30;1.07;;;;;;;;;;5065616;28;20021;-59
2023/11/07 04:04:06;;;;;;;5.50;0.63;;;;;;;;;;5053635;28;20366;-58
2023/11/07 04:06:32;;;;;;;3.78;0.82;;;;;;;;;;5070342;28;20035;-60
2023/11/07 04:09:00;;;;;;;3.20;0.60;;;;;;;;;;5075553;28;20032;-58
2023/11/07 04:11:25;;;;;;;4.28;0.70;;;;;;;;;;5070241;28;20036;-58
2023/11/07 04:13:51;;;;;;;7.30;5.67;;;;;;;;;;5067421;28;20029;-58
2023/11/07 04:16:16;;;;;;;2.05;0.52;;;;;;;;;;5062162;28;20024;-59
2023/11/07 04:18:43;;;;;;;15.48;14.23;;;;;;;;;;5067913;28;20052;-59
2023/11/07 04:21:10;;;;;;;5.35;2.30;;;;;;;;;;5058799;28;20029;-58
2023/11/07 04:23:36;;;;;;;7.70;6.97;;;;;;;;;;5063944;28;20021;-58
2023/11/07 04:26:02;;;;;;;3.42;1.50;;;;;;;;;;5060458;28;20067;-58
2023/11/07 04:28:28;;;;;;;3.25;1.88;;;;;;;;;;5068563;28;20059;-59
2023/11/07 04:30:53;;;;;;;20.17;18.92;;;;;;;;;;5069367;28;20404;-60
2023/11/07 04:33:19;;;;;;;2.20;0.90;;;;;;;;;;5069224;28;20031;-59
2023/11/07 04:35:45;;;;;;;29.40;27.70;;;;;;;;;;5059239;28;20074;-59
2023/11/07 04:38:10;;;;;;;3.30;2.33;;;;;;;;;;5052701;28;20025;-58
2023/11/07 04:40:35;;;;;;;3.63;1.77;;;;;;;;;;5061509;28;20077;-59
2023/11/07 04:43:01;;;;;;;5.07;4.50;;;;;;;;;;5059990;28;20047;-58
2023/11/07 04:45:26;;;;;;;3.05;1.90;;;;;;;;;;5058936;28;20063;-59
2023/11/07 04:47:51;;;;;;;39.25;37.17;;;;;;;;;;5054052;28;20025;-59
2023/11/07 04:50:17;;;;;;;4.80;1.53;;;;;;;;;;5054932;28;20025;-57
2023/11/07 04:52:42;;;;;;;6.63;5.95;;;;;;;;;;5054997;28;20028;-59
2023/11/07 04:55:07;;;;;;;4.20;3.13;;;;;;;;;;5051519;28;20032;-59
2023/11/07 04:57:33;;;;;;;1.67;0.53;;;;;;;;;;5053575;28;20013;-58
2023/11/07 04:59:58;;;;;;;16.93;15.87;;;;;;;;;;5051634;28;20447;-58
2023/11/07 05:02:23;;;;;;;6.27;5.70;;;;;;;;;;5053062;28;20087;-59
2023/11/07 05:04:48;;;;;;;3.17;1.10;;;;;;;;;;5060455;28;20029;-58
2023/11/07 05:07:13;;;;;;;2.73;0.80;;;;;;;;;;5073971;28;20458;-59
2023/11/07 05:09:39;;;;;;;15.93;14.93;;;;;;;;;;5054914;28;20115;-58
2023/11/07 05:12:05;;;;;;;5.93;1.42;;;;;;;;;;5059406;28;20060;-59
2023/11/07 05:14:30;;;;;;;4.85;2.70;;;;;;;;;;5066869;28;20434;-59
2023/11/07 05:16:56;;;;;;;49.83;47.17;;;;;;;;;;5058537;28;20037;-58
2023/11/07 05:19:21;;;;;;;12.88;12.07;;;;;;;;;;5052585;28;20021;-61
2023/11/07 05:21:47;;;;;;;9.77;8.87;;;;;;;;;;5060905;28;20037;-57
2023/11/07 05:24:13;;;;;;;36.13;33.92;;;;;;;;;;5056060;28;20459;-58
2023/11/07 05:26:38;;;;;;;13.75;12.75;;;;;;;;;;5061868;28;20052;-60
2023/11/07 05:29:04;;;;;;;2.87;0.70;;;;;;;;;;5060553;28;20021;-59
2023/11/07 05:31:31;;;;;;;2.88;0.77;;;;;;;;;;5056554;28;20547;-57
2023/11/07 05:33:56;;;;;;;7.15;6.45;;;;;;;;;;5065471;28;20028;-58
2023/11/07 05:36:21;;;;;;;5.90;3.20;;;;;;;;;;5073290;28;20380;-59
2023/11/07 05:38:47;;;;;;;6.67;5.37;;;;;;;;;;5073278;28;20063;-58
2023/11/07 05:41:12;;;;;;;14.95;13.98;;;;;;;;;;5077305;28;20804;-58
2023/11/07 05:43:39;;;;;;;12.48;11.68;;;;;;;;;;5071143;28;20091;-58
2023/11/07 05:46:04;;;;;;;20.05;18.80;;;;;;;;;;5075141;28;20420;-59
2023/11/07 05:48:29;;;;;;;15.07;13.98;;;;;;;;;;5063090;28;20021;-59
2023/11/07 05:50:55;;;;;;;31.27;29.47;;;;;;;;;;5054970;28;20772;-59
2023/11/07 05:53:20;;;;;;;38.03;36.03;;;;;;;;;;5044662;28;20021;-57
2023/11/07 05:55:45;;;;;;;29.40;27.80;;;;;;;;;;5041590;28;20016;-59
2023/11/07 05:58:11;;;;;;;12.93;12.07;;;;;;;;;;5050566;28;20082;-57
2023/11/07 06:00:36;;;;;;;6.80;6.20;;;;;;;;;;5043458;28;20021;-57
2023/11/07 06:03:01;;;;;;;2.75;1.48;;;;;;;;;;5051975;28;20029;-59
2023/11/07 06:05:26;;;;;;;3.33;0.80;;;;;;;;;;5054575;28;20461;-59
2023/11/07 06:07:55;;;;;;;3.77;1.37;;;;;;;;;;5054991;28;20036;-59
2023/11/07 06:10:21;;;;;;;5.20;3.85;;;;;;;;;;5049176;28;20024;-58
2023/11/07 06:12:46;;;;;;;14.57;13.52;;;;;;;;;;5055817;28;20383;-58
2023/11/07 06:15:11;;;;;;;8.57;7.83;;;;;;;;;;5053365;28;20180;-59
2023/11/07 06:17:36;;;;;;;13.70;12.80;;;;;;;;;;5052736;28;20029;-58
2023/11/07 06:20:01;;;;;;;3.72;1.83;;;;;;;;;;5062340;28;20024;-58
2023/11/07 06:22:27;;;;;;;4.70;2.97;;;;;;;;;;5041297;28;20028;-57
2023/11/07 06:24:52;;;;;;;28.67;27.07;;;;;;;;;;5051742;28;20025;-58
2023/11/07 06:27:17;;;;;;;12.23;11.43;;;;;;;;;;5048689;28;20025;-61
2023/11/07 06:29:42;;;;;;;12.87;11.97;;;;;;;;;;5051485;28;20029;-60
2023/11/07 06:32:09;;;;;;;26.10;24.52;;;;;;;;;;5051637;28;20104;-59
2023/11/07 06:34:34;;;;;;;29.95;28.30;;;;;;;;;;5051186;28;20455;-59
2023/11/07 06:36:59;;;;;;;11.13;10.30;;;;;;;;;;5051787;28;20067;-59
2023/11/07 06:39:24;;;;;;;8.60;7.80;;;;;;;;;;5051341;28;20025;-58
2023/11/07 06:41:51;;;;;;;9.33;8.50;;;;;;;;;;5049268;28;20048;-59
2023/11/07 06:44:16;;;;;;;4.25;3.33;;;;;;;;;;5051388;28;20051;-59
2023/11/07 06:46:41;;;;;;;5.37;2.33;;;;;;;;;;5051153;28;20473;-58
2023/11/07 06:49:08;;;;;;;10.07;8.57;;;;;;;;;;5051338;28;20017;-58
2023/11/07 06:51:33;;;;;;;10.40;9.05;;;;;;;;;;5045257;28;20017;-58
2023/11/07 06:54:00;;;;;;;28.00;26.40;;;;;;;;;;5054447;28;20075;-58
2023/11/07 06:56:26;;;;;;;6.53;4.43;;;;;;;;;;5042723;28;20123;-58
2023/11/07 06:58:51;;;;;;;3.40;3.08;;;;;;;;;;5049671;28;20092;-58
2023/11/07 07:01:16;;;;;;;3.27;1.67;;;;;;;;;;5042498;28;20031;-60
2023/11/07 07:03:42;;;;;;;3.42;1.20;;;;;;;;;;5034610;28;20042;-58
2023/11/07 07:06:07;;;;;;;6.28;5.78;;;;;;;;;;5032088;28;20505;-59
2023/11/07 07:08:32;;;;;;;6.43;1.70;;;;;;;;;;5032710;28;20027;-58
2023/11/07 07:10:58;;;;;;;138.00;128.03;;;;;;;;;;5040175;28;20020;-63
2023/11/07 07:13:24;;;;;;;4.05;1.40;;;;;;;;;;5046755;28;20013;-57
2023/11/07 07:15:50;;;;;;;4.43;4.00;;;;;;;;;;5047373;28;20028;-58
2023/11/07 07:18:18;;;;;;;6.22;5.63;;;;;;;;;;5044009;28;20096;-59
2023/11/07 07:20:47;;;;;;;20.38;19.20;;;;;;;;;;5051478;28;20419;-58
2023/11/07 07:23:12;;;;;;;2.85;0.77;;;;;;;;;;5050800;28;20029;-58
2023/11/07 07:25:37;;;;;;;46.77;44.17;;;;;;;;;;5051685;28;20028;-58
2023/11/07 07:28:04;;;;;;;30.50;28.70;;;;;;;;;;5056854;28;20104;-60
2023/11/07 07:30:32;;;;;;;4.72;4.22;;;;;;;;;;5070079;28;20056;-59
2023/11/07 07:32:57;;;;;;;4.30;0.80;;;;;;;;;;5056022;28;20020;-60
2023/11/07 07:35:29;;;;;;;12.50;11.52;;;;;;;;;;5050128;28;20094;-60
2023/11/07 07:37:54;;;;;;;11.80;11.00;;;;;;;;;;5050666;28;20013;-58
2023/11/07 07:40:25;;;;;;;19.67;18.50;;;;;;;;;;5070530;28;20047;-59
2023/11/07 07:42:52;;;;;;;13.57;12.55;;;;;;;;;;5069414;28;20021;-58
2023/11/07 07:45:18;;;;;;;18.48;17.27;;;;;;;;;;5069015;28;20017;-58
2023/11/07 07:47:46;;;;;;;37.42;35.20;;;;;;;;;;5057164;28;20166;-58
2023/11/07 07:50:12;;;;;;;19.67;18.50;;;;;;;;;;5049868;28;20047;-59
2023/11/07 07:52:38;;;;;;;20.30;18.67;;;;;;;;;;5047175;28;20034;-58
2023/11/07 07:55:08;;;;;;;8.50;7.78;;;;;;;;;;5050620;28;20015;-60
2023/11/07 07:57:36;;;;;;;3.30;1.05;;;;;;;;;;5052100;28;20403;-59
2023/11/07 08:00:03;;;;;;;4.57;0.70;;;;;;;;;;5052087;28;20071;-58
2023/11/07 08:02:28;;;;;;;6.15;4.60;;;;;;;;;;5051681;28;20029;-57
2023/11/07 08:04:56;;;;;;;18.13;16.97;;;;;;;;;;5054109;28;20023;-58
2023/11/07 08:07:21;;;;;;;8.45;7.80;;;;;;;;;;5051330;28;20032;-59
2023/11/07 08:09:46;;;;;;;2.75;1.40;;;;;;;;;;5051142;28;20380;-59
2023/11/07 08:12:12;;;;;;;10.88;10.13;;;;;;;;;;5049299;28;20086;-59
2023/11/07 08:14:37;;;;;;;17.30;16.20;;;;;;;;;;5049487;28;20056;-57
2023/11/07 08:17:02;;;;;;;6.57;6.15;;;;;;;;;;5050534;28;20017;-59
2023/11/07 08:19:27;;;;;;;3.75;1.48;;;;;;;;;;5050843;28;20025;-59
2023/11/07 08:21:53;;;;;;;24.17;22.80;;;;;;;;;;5050872;28;20029;-60
2023/11/07 08:24:18;;;;;;;3.47;0.95;;;;;;;;;;5050160;28;20029;-59
2023/11/07 08:26:47;;;;;;;17.90;16.73;;;;;;;;;;5055485;28;20021;-57
2023/11/07 08:29:12;;;;;;;57.92;54.85;;;;;;;;;;5055028;28;20021;-59
2023/11/07 08:31:37;;;;;;;6.70;5.95;;;;;;;;;;5062639;28;20027;-58
2023/11/07 08:34:09;;;;;;;24.58;23.17;;;;;;;;;;5063003;28;20094;-59
2023/11/07 08:36:34;;;;;;;4.13;1.30;;;;;;;;;;5070896;28;20013;-59
2023/11/07 08:38:59;;;;;;;23.83;22.35;;;;;;;;;;5059030;28;20104;-58
2023/11/07 08:41:25;;;;;;;2.67;0.77;;;;;;;;;;5053312;28;20064;-57
2023/11/07 08:43:51;;;;;;;7.50;6.90;;;;;;;;;;5054347;28;20067;-58
2023/11/07 08:46:19;;;;;;;4.60;3.78;;;;;;;;;;5054423;28;20025;-57
2023/11/07 08:48:44;;;;;;;10.70;9.90;;;;;;;;;;5054002;28;20009;-57
2023/11/07 08:51:09;;;;;;;7.05;6.38;;;;;;;;;;5055475;28;20388;-58
2023/11/07 08:53:34;;;;;;;5.72;5.00;;;;;;;;;;5051962;28;20021;-59
2023/11/07 08:56:00;;;;;;;36.10;34.13;;;;;;;;;;5053628;28;20014;-59
2023/11/07 08:58:28;;;;;;;1.92;0.60;;;;;;;;;;5050168;28;20021;-59
2023/11/07 09:00:57;;;;;;;5.55;4.78;;;;;;;;;;5056811;28;20096;-59
2023/11/07 09:03:22;;;;;;;2.80;0.80;;;;;;;;;;5057068;28;20021;-59
2023/11/07 09:05:48;;;;;;;18.37;17.27;;;;;;;;;;5054689;28;20020;-57
2023/11/07 09:08:13;;;;;;;13.15;12.25;;;;;;;;;;5053150;28;20052;-59
2023/11/07 09:10:38;;;;;;;4.13;3.53;;;;;;;;;;5051482;28;20049;-57
2023/11/07 09:13:05;;;;;;;9.47;8.70;;;;;;;;;;5052133;28;20009;-60
2023/11/07 09:15:30;;;;;;;5.40;2.05;;;;;;;;;;5052896;28;20086;-59
2023/11/07 09:17:57;;;;;;;37.80;35.83;;;;;;;;;;5053060;28;20477;-60
2023/11/07 09:20:23;;;;;;;18.40;16.70;;;;;;;;;;5052332;28;20047;-58
2023/11/07 09:22:49;;;;;;;20.55;19.35;;;;;;;;;;5050458;28;20047;-58
2023/11/07 09:25:15;;;;;;;7.63;6.13;;;;;;;;;;5052767;28;20021;-59
2023/11/07 09:27:40;;;;;;;3.35;2.33;;;;;;;;;;5052860;28;20445;-58
2023/11/07 09:30:09;;;;;;;18.17;17.13;;;;;;;;;;5052705;28;20021;-59
2023/11/07 09:32:35;;;;;;;2.38;0.80;;;;;;;;;;5050918;28;20499;-58
2023/11/07 09:35:02;;;;;;;28.58;26.98;;;;;;;;;;5052530;28;20020;-59
2023/11/07 09:37:28;;;;;;;3.45;1.80;;;;;;;;;;5052789;28;20451;-58
2023/11/07 09:39:54;;;;;;;39.50;37.43;;;;;;;;;;5052602;28;20029;-58
2023/11/07 09:42:19;;;;;;;11.07;10.27;;;;;;;;;;5041873;28;20029;-59
2023/11/07 09:44:44;;;;;;;23.23;21.83;;;;;;;;;;5049883;28;20025;-60
2023/11/07 09:47:09;;;;;;;5.43;5.03;;;;;;;;;;5051554;28;20392;-60
2023/11/07 09:49:35;;;;;;;9.05;8.45;;;;;;;;;;5049123;28;20362;-60
2023/11/07 09:52:04;;;;;;;15.70;14.70;;;;;;;;;;5050933;28;20079;-58
2023/11/07 09:54:31;;;;;;;3.67;1.05;;;;;;;;;;5044270;28;20562;-59
2023/11/07 09:56:58;;;;;;;21.95;20.70;;;;;;;;;;5048909;28;20017;-59
2023/11/07 09:59:53;;;;;;;1.85;0.60;;;;;;;;;;5051758;28;20476;-58
2023/11/07 10:02:18;;;;;;;3.75;1.20;;;;;;;;;;5042952;28;20036;-58
2023/11/07 10:04:44;;;;;;;5.30;4.60;;;;;;;;;;5052381;28;20017;-60
2023/11/07 10:07:09;;;;;;;21.30;20.00;;;;;;;;;;5045602;28;20028;-58
2023/11/07 10:09:34;;;;;;;6.03;5.00;;;;;;;;;;5051895;28;20029;-59
2023/11/07 10:12:00;;;;;;;9.40;8.80;;;;;;;;;;5051839;28;20021;-60
2023/11/07 10:14:26;;;;;;;2.40;0.70;;;;;;;;;;5052257;28;20019;-59
2023/11/07 10:16:56;;;;;;;10.88;10.05;;;;;;;;;;5052272;28;20427;-58
2023/11/07 10:19:23;;;;;;;7.20;6.53;;;;;;;;;;5052008;28;20017;-59
2023/11/07 10:21:48;;;;;;;24.25;22.80;;;;;;;;;;5051638;28;20029;-59
2023/11/07 10:24:14;;;;;;;5.38;1.95;;;;;;;;;;5052785;28;20037;-59
2023/11/07 10:26:52;;;;;;;18.60;17.27;;;;;;;;;;5053538;28;20109;-59
2023/11/07 10:29:25;;;;;;;44.17;41.78;;;;;;;;;;5052675;28;20020;-59
2023/11/07 10:32:02;;;;;;;38.80;36.67;;;;;;;;;;5052950;28;20508;-60
2023/11/07 10:34:28;;;;;;;3.67;1.20;;;;;;;;;;5054180;28;20842;-60
2023/11/07 10:36:54;;;;;;;17.02;16.02;;;;;;;;;;5055296;28;20028;-59
2023/11/07 10:39:23;;;;;;;6.53;6.03;;;;;;;;;;5055045;28;20102;-59
2023/11/07 10:41:48;;;;;;;4.50;2.10;;;;;;;;;;5052345;28;20025;-59
2023/11/07 10:44:23;;;;;;;3.63;2.03;;;;;;;;;;5051796;28;20438;-60
2023/11/07 10:46:49;;;;;;;6.70;6.18;;;;;;;;;;5051917;28;20032;-58
2023/11/07 10:49:15;;;;;;;2.63;0.63;;;;;;;;;;5049346;28;20412;-59
2023/11/07 10:51:41;;;;;;;25.10;23.45;;;;;;;;;;5049971;28;20024;-58
2023/11/07 10:54:07;;;;;;;13.65;12.65;;;;;;;;;;5050749;28;20019;-58
2023/11/07 10:56:34;;;;;;;8.45;7.68;;;;;;;;;;5052655;28;20040;-60
2023/11/07 10:59:00;;;;;;;25.77;23.95;;;;;;;;;;5053511;28;20009;-58
2023/11/07 11:01:27;;;;;;;3.03;0.63;;;;;;;;;;5052789;28;20028;-58
2023/11/07 11:03:52;;;;;;;;;;;;;;;;;;5050978;28;20055;-59
2023/11/07 11:06:23;;;;;;;7.57;6.93;;;;;;;;;;5052348;28;19904;-58
2023/11/07 11:08:49;;;;;;;16.58;15.45;;;;;;;;;;5051273;28;20025;-60
2023/11/07 11:11:14;;;;;;;;;;;;;;;;;;5051269;28;20128;-59
2023/11/07 11:13:41;;;;;;;5.90;5.40;;;;;;;;;;5051151;28;19936;-59
2023/11/07 11:16:07;;;;;;;19.88;18.75;;;;;;;;;;5051411;28;20510;-60
2023/11/07 11:18:39;;;;;;;2.80;2.13;;;;;;;;;;5049688;28;20104;-59
2023/11/07 11:21:04;;;;;;;9.27;8.68;;;;;;;;;;5049956;28;20028;-59
2023/11/07 11:23:36;;;;;;;2.15;0.52;;;;;;;;;;5050824;28;20021;-58
2023/11/07 11:26:19;;;;;;;29.65;28.00;;;;;;;;;;5050879;28;20021;-58
2023/11/07 11:28:44;;;;;;;15.73;14.80;;;;;;;;;;5053411;28;20017;-58
2023/11/07 11:31:14;;;;;;;8.10;7.40;;;;;;;;;;5052203;28;20028;-58
2023/11/07 11:33:42;;;;;;;3.42;2.83;;;;;;;;;;5053819;28;20388;-59
2023/11/07 11:36:26;;;;;;;4.72;4.20;;;;;;;;;;5053313;28;20028;-59
2023/11/07 11:38:51;;;;;;;55.50;52.72;;;;;;;;;;5051142;28;20026;-59
2023/11/07 11:41:16;;;;;;;3.07;2.10;;;;;;;;;;5055213;28;20025;-59
2023/11/07 11:44:00;;;;;;;13.47;12.67;;;;;;;;;;5051431;28;20106;-59
2023/11/07 11:46:37;;;;;;;6.03;5.53;;;;;;;;;;5051109;28;20385;-59
2023/11/07 11:49:04;;;;;;;27.98;26.50;;;;;;;;;;5042752;28;20025;-60
2023/11/07 11:51:36;;;;;;;18.48;16.92;;;;;;;;;;5043812;28;20021;-59
2023/11/07 11:54:01;;;;;;;4.28;2.47;;;;;;;;;;5050730;28;20015;-58
2023/11/07 11:56:28;;;;;;;9.27;8.73;;;;;;;;;;5049828;28;20017;-59
2023/11/07 11:59:06;;;;;;;22.50;21.27;;;;;;;;;;5050952;28;20021;-59
2023/11/07 12:01:50;;;;;;;4.40;3.80;;;;;;;;;;5050091;28;20025;-59
2023/11/07 12:04:35;;;;;;;9.07;8.45;;;;;;;;;;5050143;28;20021;-59
2023/11/07 12:07:06;;;;;;;4.03;3.63;;;;;;;;;;5054265;28;20020;-58
2023/11/07 12:09:32;;;;;;;4.85;4.50;;;;;;;;;;5049541;28;20021;-60
2023/11/07 12:11:57;;;;;;;26.43;25.07;;;;;;;;;;5059644;28;20132;-59
2023/11/07 12:14:22;;;;;;;3.37;2.97;;;;;;;;;;5052957;28;20427;-58
2023/11/07 12:16:54;;;;;;;9.07;8.47;;;;;;;;;;5054163;28;20024;-60
2023/11/07 12:19:20;;;;;;;1.83;0.50;;;;;;;;;;5054205;28;20095;-60
2023/11/07 12:21:45;;;;;;;3.27;2.80;;;;;;;;;;5047925;28;20135;-59
2023/11/07 12:24:10;;;;;;;23.80;22.50;;;;;;;;;;5059914;28;20016;-58
2023/11/07 12:26:42;;;;;;;8.57;8.03;;;;;;;;;;5053865;28;20058;-58
2023/11/07 12:29:08;;;;;;;12.73;11.85;;;;;;;;;;5054084;28;20009;-60
2023/11/07 12:31:34;;;;;;;15.18;14.30;;;;;;;;;;5053320;28;20037;-58
2023/11/07 12:33:59;;;;;;;17.00;16.00;;;;;;;;;;5053421;28;20104;-58
2023/11/07 12:36:24;;;;;;;39.47;37.45;;;;;;;;;;5060603;28;20043;-59
2023/11/07 12:38:49;;;;;;;30.30;28.73;;;;;;;;;;5053601;28;20044;-59
2023/11/07 12:41:15;;;;;;;1.77;0.40;;;;;;;;;;5060762;28;20028;-58
2023/11/07 12:43:40;;;;;;;4.43;2.97;;;;;;;;;;5060344;28;20466;-60
2023/11/07 12:46:08;;;;;;;13.00;12.10;;;;;;;;;;5058158;28;20415;-57
2023/11/07 12:48:36;;;;;;;5.57;5.13;;;;;;;;;;5057963;28;20017;-59
2023/11/07 12:51:03;;;;;;;15.27;14.38;;;;;;;;;;5060783;28;20052;-64
2023/11/07 12:53:28;;;;;;;3.00;1.85;;;;;;;;;;5056626;28;20025;-58
2023/11/07 12:55:54;;;;;;;14.43;13.57;;;;;;;;;;5055141;28;20021;-60
2023/11/07 12:58:27;;;;;;;20.13;19.02;;;;;;;;;;5047317;28;20024;-57
2023/11/07 13:00:53;;;;;;;11.88;11.18;;;;;;;;;;5052464;28;20023;-59
2023/11/07 13:03:25;;;;;;;3.53;0.50;;;;;;;;;;5053698;28;20021;-60
2023/11/07 13:06:02;;;;;;;26.35;24.83;;;;;;;;;;5052474;28;20051;-59
2023/11/07 13:08:30;;;;;;;12.20;11.43;;;;;;;;;;5052214;28;20090;-59
2023/11/07 13:11:09;;;;;;;20.98;19.73;;;;;;;;;;5050625;28;20044;-58
2023/11/07 13:13:34;;;;;;;3.03;2.03;;;;;;;;;;5048695;28;20063;-59
2023/11/07 13:16:00;;;;;;;3.37;3.07;;;;;;;;;;5053064;28;20487;-57
2023/11/07 13:18:25;;;;;;;7.90;7.22;;;;;;;;;;5051530;28;20340;-58
2023/11/07 13:20:51;;;;;;;13.50;12.65;;;;;;;;;;5051233;28;20041;-58
2023/11/07 13:23:16;;;;;;;5.73;5.30;;;;;;;;;;5050812;28;20033;-59
2023/11/07 13:25:42;;;;;;;6.73;6.07;;;;;;;;;;5052020;28;20029;-58
2023/11/07 13:28:07;;;;;;;25.13;23.38;;;;;;;;;;5049058;28;20029;-59
2023/11/07 13:30:33;;;;;;;20.90;19.30;;;;;;;;;;5050772;28;20744;-59
2023/11/07 13:32:58;;;;;;;16.58;15.48;;;;;;;;;;5050898;28;20029;-59
2023/11/07 13:35:24;;;;;;;16.13;15.05;;;;;;;;;;5051034;28;20067;-60
2023/11/07 13:37:50;;;;;;;32.60;30.63;;;;;;;;;;5053197;28;20032;-59
2023/11/07 13:40:16;;;;;;;24.40;23.05;;;;;;;;;;5050536;28;20021;-59
2023/11/07 13:42:43;;;;;;;2.70;1.30;;;;;;;;;;5045642;28;20065;-58
2023/11/07 13:45:09;;;;;;;3.67;0.90;;;;;;;;;;5049997;28;20629;-58
2023/11/07 13:47:34;;;;;;;;;;;;;;;;;;5048679;28;20024;-58
2023/11/07 13:49:59;;;;;;;15.32;14.40;;;;;;;;;;5043779;28;19909;-57
2023/11/07 13:52:25;;;;;;;6.00;5.45;;;;;;;;;;5046088;28;20055;-58
2023/11/07 13:54:50;;;;;;;8.03;7.57;;;;;;;;;;5052119;28;20024;-59
2023/11/07 13:57:15;;;;;;;18.83;17.73;;;;;;;;;;5050770;28;20473;-58
2023/11/07 13:59:40;;;;;;;36.50;34.65;;;;;;;;;;5051911;28;20017;-57
2023/11/07 14:02:06;;;;;;;20.60;19.47;;;;;;;;;;5054349;28;20484;-58
2023/11/07 14:04:31;;;;;;;18.48;17.45;;;;;;;;;;5056490;28;20013;-60
2023/11/07 14:06:56;;;;;;;93.87;89.10;;;;;;;;;;5055058;28;20023;-58
2023/11/07 14:09:22;;;;;;;78.43;74.53;;;;;;;;;;5050850;28;20978;-57
2023/11/07 14:11:47;;;;;;;33.50;31.65;;;;;;;;;;5046941;28;20124;-60
2023/11/07 14:14:13;;;;;;;5.53;5.10;;;;;;;;;;5047259;28;20728;-59
2023/11/07 14:16:38;;;;;;;2.97;2.30;;;;;;;;;;5060516;28;20016;-58
2023/11/07 14:19:06;;;;;;;3.10;2.53;;;;;;;;;;5059168;28;20491;-57
2023/11/07 14:21:31;;;;;;;18.58;17.48;;;;;;;;;;5044862;28;20071;-57
2023/11/07 14:23:59;;;;;;;12.00;11.23;;;;;;;;;;5049711;28;20048;-58
2023/11/07 14:26:24;;;;;;;17.25;16.27;;;;;;;;;;5052167;28;20494;-58
2023/11/07 14:28:50;;;;;;;43.47;41.13;;;;;;;;;;5047584;28;20424;-59
2023/11/07 14:31:16;;;;;;;52.22;49.63;;;;;;;;;;5050582;28;20109;-57